createdAt,value
2017-06-23T00:02:25.714Z,23.40
2017-06-23T00:04:53.246Z,23.60
2017-06-23T00:07:20.771Z,23.80
2017-06-23T00:09:48.293Z,24.00
2017-06-23T00:12:15.870Z,24.00
2017-06-23T00:14:43.438Z,23.80
2017-06-23T00:17:10.982Z,23.70
2017-06-23T00:19:38.528Z,23.80
2017-06-23T00:22:06.071Z,23.90
2017-06-23T00:24:33.629Z,23.70
2017-06-23T00:27:01.161Z,23.80
2017-06-23T00:29:29.478Z,23.50
2017-06-23T00:31:57.019Z,23.50
2017-06-23T00:34:24.562Z,24.00
2017-06-23T00:36:52.879Z,23.60
2017-06-23T00:39:20.430Z,23.60
2017-06-23T00:41:47.958Z,23.80
2017-06-23T00:44:15.522Z,23.40
2017-06-23T00:46:43.824Z,23.40
2017-06-23T00:49:11.354Z,23.40
2017-06-23T00:51:38.890Z,23.40
2017-06-23T00:54:07.219Z,23.60
2017-06-23T00:56:34.760Z,23.60
2017-06-23T00:59:02.335Z,23.80
2017-06-23T01:01:29.873Z,23.70
2017-06-23T01:03:58.203Z,23.60
2017-06-23T01:06:25.731Z,23.60
2017-06-23T01:08:53.334Z,23.40
2017-06-23T01:11:20.982Z,23.50
2017-06-23T01:13:48.522Z,23.80
2017-06-23T01:16:16.057Z,23.80
2017-06-23T01:18:44.443Z,23.60
2017-06-23T01:21:12.726Z,23.40
2017-06-23T01:23:40.269Z,23.40
2017-06-23T01:26:07.846Z,23.70
2017-06-23T01:28:35.384Z,23.90
2017-06-23T01:31:03.721Z,24.00
2017-06-23T01:33:31.249Z,24.00
2017-06-23T01:35:58.781Z,23.80
2017-06-23T01:38:27.098Z,23.80
2017-06-23T01:40:54.648Z,23.80
2017-06-23T01:43:22.186Z,23.70
2017-06-23T01:45:50.470Z,23.60
2017-06-23T01:48:19.605Z,23.60
2017-06-23T01:50:47.144Z,23.50
2017-06-23T01:53:14.688Z,23.80
2017-06-23T01:55:42.250Z,23.70
2017-06-23T01:58:09.841Z,23.80
2017-06-23T02:00:37.390Z,24.00
2017-06-23T02:03:04.932Z,23.90
2017-06-23T02:05:32.513Z,24.30
2017-06-23T02:08:00.017Z,24.10
2017-06-23T02:10:27.534Z,23.80
2017-06-23T02:12:55.159Z,24.00
2017-06-23T02:15:22.714Z,23.70
2017-06-23T02:17:51.047Z,23.40
2017-06-23T02:20:18.578Z,23.40
2017-06-23T02:22:46.109Z,23.30
2017-06-23T02:25:13.730Z,23.70
2017-06-23T02:27:41.262Z,24.10
2017-06-23T02:30:08.831Z,23.90
2017-06-23T02:32:36.346Z,23.40
2017-06-23T02:35:03.870Z,23.80
2017-06-23T02:37:31.425Z,24.20
2017-06-23T02:39:58.969Z,24.30
2017-06-23T02:42:26.500Z,24.30
2017-06-23T02:44:54.824Z,24.10
2017-06-23T02:47:22.329Z,24.00
2017-06-23T02:49:49.846Z,24.30
2017-06-23T02:52:17.370Z,24.20
2017-06-23T02:54:44.886Z,23.50
2017-06-23T02:57:12.411Z,23.60
2017-06-23T02:59:39.966Z,23.90
2017-06-23T03:02:07.502Z,23.60
2017-06-23T03:04:35.058Z,23.40
2017-06-23T03:07:03.334Z,23.70
2017-06-23T03:09:31.654Z,23.20
2017-06-23T03:11:59.234Z,23.20
2017-06-23T03:14:26.774Z,23.70
2017-06-23T03:16:54.306Z,24.00
2017-06-23T03:19:21.850Z,23.80
2017-06-23T03:21:49.416Z,23.10
2017-06-23T03:24:17.730Z,23.70
2017-06-23T03:26:45.298Z,23.70
2017-06-23T03:29:12.881Z,23.50
2017-06-23T03:31:40.427Z,23.40
2017-06-23T03:34:08.050Z,23.10
2017-06-23T03:36:35.566Z,23.30
2017-06-23T03:39:03.157Z,23.40
2017-06-23T03:41:30.701Z,23.80
2017-06-23T03:43:59.014Z,23.60
2017-06-23T03:46:26.563Z,23.60
2017-06-23T03:48:54.092Z,23.40
2017-06-23T03:51:21.634Z,23.30
2017-06-23T03:53:49.186Z,23.60
2017-06-23T03:56:16.725Z,23.60
2017-06-23T03:58:44.242Z,23.20
2017-06-23T04:01:12.545Z,23.30
2017-06-23T04:03:40.075Z,23.30
2017-06-23T04:06:08.413Z,23.50
2017-06-23T04:08:35.953Z,23.50
2017-06-23T04:11:03.524Z,23.00
2017-06-23T04:13:31.055Z,23.00
2017-06-23T04:15:58.606Z,23.00
2017-06-23T04:18:26.145Z,23.40
2017-06-23T04:20:53.811Z,23.50
2017-06-23T04:23:21.391Z,23.40
2017-06-23T04:25:48.977Z,22.70
2017-06-23T04:28:16.650Z,22.90
2017-06-23T04:30:44.175Z,23.20
2017-06-23T04:33:11.737Z,23.20
2017-06-23T04:35:39.351Z,23.70
2017-06-23T04:38:07.092Z,23.70
2017-06-23T04:40:34.621Z,24.00
2017-06-23T04:43:02.182Z,24.10
2017-06-23T04:45:29.739Z,24.20
2017-06-23T04:47:57.467Z,24.20
2017-06-23T04:50:25.026Z,24.10
2017-06-23T04:52:52.569Z,24.10
2017-06-23T04:55:20.197Z,24.30
2017-06-23T04:57:47.760Z,24.30
2017-06-23T05:00:15.355Z,24.40
2017-06-23T05:02:42.909Z,24.60
2017-06-23T05:05:10.518Z,24.60
2017-06-23T05:07:38.067Z,24.10
2017-06-23T05:10:05.598Z,24.10
2017-06-23T05:12:33.134Z,24.40
2017-06-23T05:15:00.699Z,24.20
2017-06-23T05:17:28.247Z,24.10
2017-06-23T05:19:55.792Z,23.80
2017-06-23T05:22:23.350Z,23.60
2017-06-23T05:24:51.634Z,23.90
2017-06-23T05:27:19.202Z,23.80
2017-06-23T05:29:46.735Z,24.10
2017-06-23T05:32:15.055Z,24.40
2017-06-23T05:34:42.558Z,24.40
2017-06-23T05:37:10.126Z,24.20
2017-06-23T05:39:37.643Z,24.20
2017-06-23T05:42:05.246Z,24.30
2017-06-23T05:44:32.791Z,24.50
2017-06-23T05:47:00.324Z,24.60
2017-06-23T05:49:27.849Z,24.80
2017-06-23T05:51:55.442Z,24.90
2017-06-23T05:54:22.950Z,25.00
2017-06-23T05:56:50.538Z,25.20
2017-06-23T05:59:18.078Z,25.30
2017-06-23T06:01:45.691Z,25.20
2017-06-23T06:04:13.226Z,25.20
2017-06-23T06:06:40.741Z,25.20
2017-06-23T06:09:08.273Z,25.20
2017-06-23T06:11:35.818Z,25.20
2017-06-23T06:14:03.357Z,24.90
2017-06-23T06:16:30.926Z,24.80
2017-06-23T06:18:58.446Z,24.90
2017-06-23T06:21:25.993Z,24.30
2017-06-23T06:23:53.515Z,24.90
2017-06-23T06:26:21.072Z,25.40
2017-06-23T06:28:48.638Z,25.80
2017-06-23T06:31:16.190Z,26.20
2017-06-23T06:33:43.751Z,26.50
2017-06-23T06:36:11.290Z,26.60
2017-06-23T06:38:38.794Z,26.50
2017-06-23T06:41:06.367Z,26.40
2017-06-23T06:43:33.930Z,26.20
2017-06-23T06:46:01.478Z,26.10
2017-06-23T06:48:28.999Z,25.60
2017-06-23T06:50:56.568Z,25.70
2017-06-23T06:53:24.116Z,25.50
2017-06-23T06:55:51.644Z,25.50
2017-06-23T06:58:19.252Z,25.10
2017-06-23T07:03:36.035Z,24.80
2017-06-23T07:06:03.595Z,25.60
2017-06-23T07:08:31.871Z,26.80
2017-06-23T07:11:00.149Z,26.50
2017-06-23T07:13:27.695Z,26.50
2017-06-23T07:15:55.221Z,26.70
2017-06-23T07:18:22.790Z,26.60
2017-06-23T07:20:50.311Z,26.20
2017-06-23T07:23:17.838Z,26.20
2017-06-23T07:25:45.399Z,26.50
2017-06-23T07:28:13.019Z,26.30
2017-06-23T07:30:40.746Z,26.30
2017-06-23T07:33:08.310Z,25.90
2017-06-23T07:35:36.593Z,26.80
2017-06-23T07:38:04.901Z,27.20
2017-06-23T07:40:32.464Z,27.20
2017-06-23T07:42:59.989Z,27.00
2017-06-23T07:45:27.501Z,27.00
2017-06-23T07:47:55.046Z,27.40
2017-06-23T07:50:22.576Z,27.40
2017-06-23T07:52:50.138Z,26.90
2017-06-23T07:55:17.669Z,26.50
2017-06-23T07:57:45.209Z,26.50
2017-06-23T08:00:12.721Z,26.90
2017-06-23T08:02:40.250Z,25.90
2017-06-23T08:05:07.745Z,26.40
2017-06-23T08:07:35.290Z,26.40
2017-06-23T08:10:02.799Z,26.70
2017-06-23T08:12:30.366Z,26.70
2017-06-23T08:14:57.881Z,27.00
2017-06-23T08:17:26.380Z,26.90
2017-06-23T08:19:53.969Z,26.90
2017-06-23T08:22:21.957Z,27.20
2017-06-23T08:24:49.768Z,27.50
2017-06-23T08:27:17.303Z,27.90
2017-06-23T08:29:44.842Z,27.80
2017-06-23T08:32:13.157Z,27.40
2017-06-23T08:34:40.669Z,27.40
2017-06-23T08:37:08.226Z,27.30
2017-06-23T08:39:35.750Z,27.70
2017-06-23T08:42:03.307Z,28.40
2017-06-23T08:44:30.885Z,28.40
2017-06-23T08:46:58.406Z,27.60
2017-06-23T08:49:25.951Z,27.60
2017-06-23T08:51:53.453Z,27.90
2017-06-23T08:54:21.022Z,27.70
2017-06-23T08:56:48.538Z,27.70
2017-06-23T08:59:16.068Z,28.60
2017-06-23T09:01:43.567Z,29.00
2017-06-23T09:04:11.236Z,29.70
2017-06-23T09:06:38.819Z,30.00
2017-06-23T09:09:06.407Z,29.80
2017-06-23T09:11:36.785Z,28.50
2017-06-23T09:14:04.351Z,28.50
2017-06-23T09:16:32.770Z,28.90
2017-06-23T09:19:00.282Z,28.60
2017-06-23T09:21:27.851Z,29.30
2017-06-23T09:23:55.377Z,29.30
2017-06-23T09:26:22.906Z,29.10
2017-06-23T09:28:55.698Z,28.00
2017-06-23T09:31:28.997Z,27.80
2017-06-23T09:48:44.854Z,30.00
2017-06-23T09:51:12.360Z,29.90
2017-06-23T09:53:39.924Z,29.70
2017-06-23T09:56:08.202Z,28.60
2017-06-23T09:58:36.515Z,28.70
2017-06-23T10:01:04.039Z,28.70
2017-06-23T10:03:32.353Z,30.50
2017-06-23T10:05:59.874Z,30.40
2017-06-23T10:08:28.164Z,30.20
2017-06-23T10:10:56.442Z,29.30
2017-06-23T10:13:24.770Z,29.30
2017-06-23T10:15:52.279Z,29.30
2017-06-23T10:18:20.556Z,29.50
2017-06-23T10:20:48.078Z,29.50
2017-06-23T10:23:15.642Z,30.00
2017-06-23T10:25:43.173Z,30.20
2017-06-23T10:28:10.753Z,29.90
2017-06-23T10:30:38.291Z,30.60
2017-06-23T10:33:05.888Z,31.40
2017-06-23T10:35:33.414Z,32.80
2017-06-23T10:38:00.960Z,33.80
2017-06-23T10:40:28.529Z,33.80
2017-06-23T10:42:56.078Z,33.20
2017-06-23T10:45:23.597Z,32.70
2017-06-23T10:47:51.103Z,32.50
2017-06-23T10:50:18.671Z,32.50
2017-06-23T10:52:46.221Z,31.90
2017-06-23T10:55:13.753Z,32.10
2017-06-23T10:57:41.279Z,31.50
2017-06-23T11:00:08.799Z,31.70
2017-06-23T11:02:36.325Z,31.50
2017-06-23T11:05:04.658Z,30.90
2017-06-23T11:07:32.169Z,30.90
2017-06-23T11:10:00.479Z,31.10
2017-06-23T11:12:27.983Z,31.10
2017-06-23T11:14:55.510Z,31.40
2017-06-23T11:17:23.038Z,31.20
2017-06-23T11:19:50.594Z,31.70
2017-06-23T11:22:18.117Z,32.30
2017-06-23T11:24:45.666Z,33.00
2017-06-23T11:27:13.962Z,34.40
2017-06-23T11:29:41.523Z,34.30
2017-06-23T11:32:09.068Z,34.20
2017-06-23T11:34:36.650Z,33.70
2017-06-23T11:37:04.942Z,33.40
2017-06-23T11:39:33.244Z,33.20
2017-06-23T11:42:00.747Z,33.20
2017-06-23T11:44:28.272Z,32.90
2017-06-23T11:46:55.789Z,33.10
2017-06-23T11:49:24.149Z,33.70
2017-06-23T11:51:51.686Z,33.70
2017-06-23T11:54:19.238Z,32.60
2017-06-23T11:56:46.748Z,31.70
2017-06-23T11:59:14.278Z,32.00
2017-06-23T12:01:41.824Z,32.00
2017-06-23T12:04:09.346Z,31.90
2017-06-23T12:06:36.858Z,31.90
2017-06-23T12:09:04.411Z,32.10
2017-06-23T12:11:31.936Z,32.00
2017-06-23T12:13:59.519Z,31.90
2017-06-23T12:16:27.035Z,31.20
2017-06-23T12:18:54.562Z,31.00
2017-06-23T12:21:22.095Z,31.70
2017-06-23T12:23:49.630Z,32.30
2017-06-23T12:26:17.198Z,32.30
2017-06-23T12:28:44.739Z,32.40
2017-06-23T12:31:12.305Z,32.00
2017-06-23T12:33:39.808Z,31.20
2017-06-23T12:36:07.459Z,30.50
2017-06-23T12:38:34.965Z,30.20
2017-06-23T12:41:03.247Z,32.30
2017-06-23T12:43:31.560Z,33.20
2017-06-23T12:45:59.426Z,33.20
2017-06-23T12:48:26.932Z,34.50
2017-06-23T12:50:55.283Z,36.20
2017-06-23T12:53:22.797Z,36.10
2017-06-23T12:55:50.351Z,35.50
2017-06-23T12:58:17.878Z,35.60
2017-06-23T13:00:45.409Z,36.00
2017-06-23T13:03:12.919Z,36.60
2017-06-23T13:05:40.503Z,36.90
2017-06-23T13:08:08.054Z,36.50
2017-06-23T13:10:35.629Z,36.40
2017-06-23T13:13:03.214Z,36.40
2017-06-23T13:15:30.761Z,35.80
2017-06-23T13:17:58.306Z,35.40
2017-06-23T13:20:25.871Z,35.60
2017-06-23T13:22:53.431Z,35.20
2017-06-23T13:25:20.968Z,36.20
2017-06-23T13:27:48.503Z,37.00
2017-06-23T13:30:16.054Z,36.80
2017-06-23T13:32:43.551Z,36.10
2017-06-23T13:35:11.126Z,35.10
2017-06-23T13:37:38.653Z,35.20
2017-06-23T13:40:07.021Z,34.40
2017-06-23T13:42:34.543Z,34.50
2017-06-23T13:45:02.088Z,35.00
2017-06-23T13:47:29.617Z,34.30
2017-06-23T13:49:57.135Z,34.40
2017-06-23T13:52:24.654Z,34.00
2017-06-23T13:54:52.158Z,33.40
2017-06-23T13:57:19.676Z,33.30
2017-06-23T13:59:47.193Z,33.70
2017-06-23T14:02:14.738Z,33.50
2017-06-23T14:04:42.289Z,32.90
2017-06-23T14:07:09.822Z,32.70
2017-06-23T14:09:37.363Z,32.40
2017-06-23T14:12:04.931Z,32.70
2017-06-23T14:14:32.466Z,33.10
2017-06-23T14:17:00.758Z,32.10
2017-06-23T14:19:28.278Z,32.10
2017-06-23T14:21:55.854Z,32.20
2017-06-23T14:24:23.375Z,32.30
2017-06-23T14:26:50.898Z,32.40
2017-06-23T14:29:18.427Z,31.40
2017-06-23T14:31:45.973Z,31.10
2017-06-23T14:34:13.553Z,31.60
2017-06-23T14:36:41.098Z,32.10
2017-06-23T14:39:08.599Z,32.50
2017-06-23T14:41:36.881Z,32.00
2017-06-23T14:44:04.403Z,31.90
2017-06-23T14:46:31.930Z,32.10
2017-06-23T14:48:59.467Z,32.70
2017-06-23T14:51:27.027Z,31.40
2017-06-23T14:53:54.552Z,31.80
2017-06-23T14:56:22.076Z,31.30
2017-06-23T14:58:49.611Z,30.80
2017-06-23T15:01:17.183Z,30.60
2017-06-23T15:03:44.691Z,31.30
2017-06-23T15:06:13.034Z,31.80
2017-06-23T15:08:40.557Z,31.80
2017-06-23T15:11:08.088Z,32.00
2017-06-23T15:13:36.375Z,31.00
2017-06-23T15:16:04.670Z,31.20
2017-06-23T15:18:32.183Z,31.20
2017-06-23T15:20:59.742Z,31.40
2017-06-23T15:23:27.246Z,31.60
2017-06-23T15:25:54.780Z,32.00
2017-06-23T15:28:23.083Z,31.80
2017-06-23T15:30:50.622Z,31.70
2017-06-23T15:33:18.943Z,31.20
2017-06-23T15:35:46.511Z,31.20
2017-06-23T15:38:14.076Z,29.90
2017-06-23T15:40:41.622Z,30.40
2017-06-23T15:43:09.167Z,30.40
2017-06-23T15:45:36.680Z,30.70
2017-06-23T15:48:04.249Z,30.40
2017-06-23T15:50:31.747Z,30.30
2017-06-23T15:52:59.275Z,30.10
2017-06-23T15:55:26.805Z,30.10
2017-06-23T15:57:54.330Z,30.70
2017-06-23T16:00:21.850Z,30.90
2017-06-23T16:02:49.395Z,31.00
2017-06-23T16:05:16.925Z,30.90
2017-06-23T16:07:44.459Z,30.60
2017-06-23T16:10:11.983Z,31.00
2017-06-23T16:12:39.511Z,31.40
2017-06-23T16:15:07.011Z,31.10
2017-06-23T16:17:34.555Z,30.60
2017-06-23T16:20:02.078Z,30.20
2017-06-23T16:22:29.621Z,30.50
2017-06-23T16:24:57.134Z,30.30
2017-06-23T16:27:24.653Z,30.10
2017-06-23T16:29:52.214Z,29.80
2017-06-23T16:32:19.743Z,29.90
2017-06-23T16:34:48.039Z,29.60
2017-06-23T16:37:15.574Z,29.50
2017-06-23T16:39:43.106Z,29.90
2017-06-23T16:42:10.644Z,30.40
2017-06-23T16:44:38.222Z,30.00
2017-06-23T16:47:05.765Z,30.40
2017-06-23T16:49:33.295Z,30.40
2017-06-23T16:52:00.822Z,30.20
2017-06-23T16:54:29.118Z,30.30
2017-06-23T16:56:56.651Z,30.30
2017-06-23T16:59:24.967Z,29.90
2017-06-23T17:01:52.494Z,29.90
2017-06-23T17:04:19.989Z,29.00
2017-06-23T17:06:48.369Z,29.60
2017-06-23T17:09:15.899Z,29.60
2017-06-23T17:11:44.188Z,29.50
2017-06-23T17:14:12.523Z,29.50
2017-06-23T17:16:40.075Z,29.50
2017-06-23T17:19:07.622Z,29.60
2017-06-23T17:21:35.154Z,29.50
2017-06-23T17:24:05.190Z,29.50
2017-06-23T17:26:32.724Z,29.70
2017-06-23T17:29:01.034Z,29.00
2017-06-23T17:31:28.569Z,29.00
2017-06-23T17:33:56.117Z,29.10
2017-06-23T17:36:23.653Z,29.40
2017-06-23T17:38:51.203Z,29.60
2017-06-23T17:41:18.770Z,29.70
2017-06-23T17:43:46.334Z,29.70
2017-06-23T17:46:13.858Z,29.10
2017-06-23T17:48:41.403Z,29.50
2017-06-23T17:51:08.950Z,29.60
2017-06-23T17:53:36.467Z,29.70
2017-06-23T17:56:03.981Z,29.80
2017-06-23T17:58:31.534Z,29.70
2017-06-23T18:00:59.086Z,29.50
2017-06-23T18:03:26.649Z,29.10
2017-06-23T18:05:54.157Z,29.00
2017-06-23T18:08:21.733Z,29.00
2017-06-23T18:10:50.050Z,29.10
2017-06-23T18:13:17.579Z,29.10
2017-06-23T18:15:45.086Z,28.90
2017-06-23T18:18:12.675Z,28.60
2017-06-23T18:20:40.192Z,28.50
2017-06-23T18:23:07.771Z,28.70
2017-06-23T18:25:35.300Z,28.50
2017-06-23T18:28:02.890Z,28.50
2017-06-23T18:30:30.390Z,28.50
2017-06-23T18:32:57.962Z,28.60
2017-06-23T18:35:25.502Z,28.70
2017-06-23T18:37:53.070Z,28.70
2017-06-23T18:40:20.605Z,28.40
2017-06-23T18:42:48.150Z,28.50
2017-06-23T18:45:15.715Z,28.60
2017-06-23T18:47:43.246Z,28.50
2017-06-23T18:50:10.784Z,28.50
2017-06-23T18:52:39.090Z,28.90
2017-06-23T18:55:06.623Z,28.90
2017-06-23T18:57:34.159Z,28.50
2017-06-23T19:00:01.710Z,28.50
2017-06-23T19:02:29.234Z,28.50
2017-06-23T19:04:56.826Z,28.80
2017-06-23T19:07:24.360Z,28.70
2017-06-23T19:09:51.910Z,28.30
2017-06-23T19:12:19.476Z,28.10
2017-06-23T19:14:47.026Z,28.30
2017-06-23T19:17:14.629Z,27.70
2017-06-23T19:19:42.198Z,27.90
2017-06-23T19:22:09.724Z,28.30
2017-06-23T19:24:37.260Z,28.60
2017-06-23T19:27:04.785Z,28.60
2017-06-23T19:29:32.345Z,28.70
2017-06-23T19:31:59.862Z,28.80
2017-06-23T19:34:27.398Z,28.80
2017-06-23T19:36:54.898Z,28.70
2017-06-23T19:39:22.441Z,28.40
2017-06-23T19:41:50.001Z,28.10
2017-06-23T19:44:17.587Z,28.00
2017-06-23T19:46:45.117Z,27.90
2017-06-23T19:49:12.689Z,28.00
2017-06-23T19:51:40.203Z,28.00
2017-06-23T19:54:09.043Z,28.10
2017-06-23T19:56:36.542Z,28.20
2017-06-23T19:59:04.078Z,28.10
2017-06-23T20:01:31.595Z,28.20
2017-06-23T20:03:59.138Z,27.90
2017-06-23T20:06:26.658Z,27.90
2017-06-23T20:08:54.178Z,27.80
2017-06-23T20:11:21.703Z,27.80
2017-06-23T20:13:49.230Z,27.90
2017-06-23T20:16:16.779Z,28.00
2017-06-23T20:18:44.322Z,27.90
2017-06-23T20:21:11.869Z,28.00
2017-06-23T20:23:39.437Z,28.00
2017-06-23T20:26:06.989Z,28.00
2017-06-23T20:28:34.531Z,27.80
2017-06-23T20:31:02.834Z,27.50
2017-06-23T20:33:30.384Z,27.50
2017-06-23T20:35:57.937Z,27.50
2017-06-23T20:38:25.487Z,27.50
2017-06-23T20:40:53.278Z,27.40
2017-06-23T20:43:20.808Z,27.50
2017-06-23T20:45:49.172Z,27.50
2017-06-23T20:48:16.675Z,27.50
2017-06-23T20:50:44.298Z,27.40
2017-06-23T20:53:11.864Z,27.50
2017-06-23T20:55:39.396Z,27.30
2017-06-23T20:58:06.945Z,27.20
2017-06-23T21:00:34.488Z,27.10
2017-06-23T21:03:02.126Z,26.90
2017-06-23T21:05:29.935Z,26.50
2017-06-23T21:07:57.489Z,26.60
2017-06-23T21:10:25.019Z,26.70
2017-06-23T21:12:52.586Z,26.70
2017-06-23T21:15:20.126Z,26.60
2017-06-23T21:17:47.634Z,26.60
2017-06-23T21:20:15.218Z,26.50
2017-06-23T21:22:42.746Z,26.20
2017-06-23T21:25:10.286Z,26.30
2017-06-23T21:27:37.830Z,26.30
2017-06-23T21:30:05.367Z,26.20
2017-06-23T21:32:32.900Z,26.10
2017-06-23T21:35:00.418Z,26.20
2017-06-23T21:37:27.954Z,26.20
2017-06-23T21:39:56.301Z,26.20
2017-06-23T21:42:23.818Z,26.20
2017-06-23T21:44:51.374Z,26.20
2017-06-23T21:47:18.881Z,26.10
2017-06-23T21:49:46.762Z,26.00
2017-06-23T21:52:15.101Z,26.00
2017-06-23T21:54:42.644Z,26.00
2017-06-23T21:57:10.177Z,26.00
2017-06-23T21:59:37.738Z,25.90
2017-06-23T22:02:06.010Z,25.90
2017-06-23T22:04:34.293Z,25.70
2017-06-23T22:07:02.613Z,25.60
2017-06-23T22:09:30.217Z,25.60
2017-06-23T22:11:57.794Z,25.60
2017-06-23T22:14:25.335Z,25.60
2017-06-23T22:16:53.637Z,25.40
2017-06-23T22:19:21.179Z,25.40
2017-06-23T22:21:49.485Z,25.40
2017-06-23T22:24:17.007Z,25.30
2017-06-23T22:26:44.547Z,25.40
2017-06-23T22:29:12.088Z,25.30
2017-06-23T22:31:39.655Z,25.00
2017-06-23T22:34:07.376Z,25.00
2017-06-23T22:36:35.694Z,25.00
2017-06-23T22:39:03.225Z,25.00
2017-06-23T22:41:30.766Z,25.00
2017-06-23T22:43:58.341Z,24.60
2017-06-23T22:46:25.910Z,24.80
2017-06-23T22:48:53.443Z,24.70
2017-06-23T22:51:21.794Z,24.40
2017-06-23T22:53:49.311Z,24.40
2017-06-23T22:56:16.848Z,24.30
2017-06-23T22:58:45.189Z,24.30
2017-06-23T23:01:12.751Z,24.30
2017-06-23T23:03:40.268Z,24.60
2017-06-23T23:06:07.830Z,24.50
2017-06-23T23:08:35.368Z,24.30
2017-06-23T23:11:03.730Z,24.20
2017-06-23T23:13:32.026Z,24.40
2017-06-23T23:15:59.562Z,24.30
2017-06-23T23:18:27.074Z,24.50
2017-06-23T23:20:54.615Z,24.50
2017-06-23T23:23:22.153Z,24.40
2017-06-23T23:25:50.470Z,24.50
2017-06-23T23:28:17.974Z,24.50
2017-06-23T23:30:45.549Z,24.80
2017-06-23T23:33:13.854Z,24.80
2017-06-23T23:35:41.408Z,24.80
2017-06-23T23:38:08.973Z,24.70
2017-06-23T23:40:36.535Z,24.60
2017-06-23T23:43:04.095Z,24.80
2017-06-23T23:45:31.626Z,24.80
2017-06-23T23:47:59.934Z,24.30
2017-06-23T23:50:27.504Z,24.30
2017-06-23T23:52:55.026Z,24.00
2017-06-23T23:55:23.346Z,23.70
2017-06-23T23:57:50.913Z,23.60
